Flight Track Log - Related Links

Times and Time Zones

All times are in EDT time to prevent confusion due to time zone crossing. See the PDT4207 flight status page for this flight to view local times or setup timezone preferences in your user account.


Time Position Orientation Groundspeed Altitude Reporting Facility
EDT Latitude Longitude Course Direction KTS MPH feet Rate Location/Type
Sat 09:37:50 PM 39.9000 -75.2333 311° West 132 152 500  Level Philadelphia TRACON
Sat 09:38:51 PM 39.9167 -75.2667 303° West 134 154 2,100 1,722 Climbing Philadelphia TRACON
Sat 09:39:45 PM 39.9500 -75.3000 323° Northwest 161 185 3,800 1,889 Climbing Philadelphia TRACON
Sat 09:40:00 PM 40.1107 -75.3139 311° West  Level Estimated
Sat 09:40:39 PM 39.9833 -75.3333 323° Northwest 134 154 5,500  Level Philadelphia TRACON
Sat 09:41:00 PM 40.1902 -75.3383 311° West  Level Estimated
Sat 09:41:45 PM 40.0167 -75.3667 323° Northwest 148 170 7,100  Level Philadelphia TRACON
Sat 09:42:00 PM 40.2243 -75.4354 295° West  Level FlightAware Approximate
Sat 09:42:33 PM 40.0500 -75.3833 339° North 163 188 8,200  Level Philadelphia TRACON
Sat 09:43:00 PM 40.3043 -75.4567 311° West  Level Estimated
Sat 09:43:21 PM 40.0761 -75.4178 315° West 176 203 9,000  Level New York Center
Sat 09:44:22 PM 40.1122 -75.4581 320° Northwest 223 257 9,000  Level New York Center
Sat 09:45:21 PM 40.1703 -75.5139 324° Northwest 230 265 9,000 500 Level New York Center
Sat 09:46:22 PM 40.2269 -75.5583 329° Northwest 235 270 10,000 1,041 Climbing New York Center
Sat 09:47:22 PM 40.2600 -75.6125 309° West 207 238 11,100 958 Climbing New York Center
Sat 09:48:21 PM 40.2956 -75.6611 314° West 194 223 11,900 756 Climbing New York Center
Sat 09:49:21 PM 40.3467 -75.6867 339° North 199 229 12,600 700 Climbing New York Center
Sat 09:50:21 PM 40.3975 -75.7200 333° Northwest 204 235 13,300 700 Climbing New York Center
Sat 09:51:21 PM 40.4564 -75.7544 336° Northwest 204 235 14,000 350 Climbing New York Center
Sat 09:52:21 PM 40.5111 -75.7911 333° Northwest 216 249 14,000  Level New York Center
Sat 09:53:21 PM 40.5678 -75.8308 332° Northwest 221 254 14,000  Level New York Center
Sat 09:54:21 PM 40.6250 -75.8542 343° North 234 269 14,000  Level New York Center
Sat 09:55:21 PM 40.6861 -75.8861 338° Northwest 239 275 14,000  Level New York Center
Sat 09:56:21 PM 40.7492 -75.9264 334° Northwest 232 267 14,000  Level New York Center
Sat 09:57:21 PM 40.8081 -75.9608 336° Northwest 232 267 14,000  Level New York Center
Sat 09:58:21 PM 40.8689 -75.9958 336° Northwest 232 267 14,000  Level New York Center
Sat 09:59:21 PM 40.9256 -76.0358 332° Northwest 232 267 14,000  Level New York Center
Sat 10:00:21 PM 40.9844 -76.0678 338° Northwest 232 267 14,000 50 Level New York Center
Sat 10:01:21 PM 41.0375 -76.0939 340° North 232 267 14,100  Climbing New York Center
Sat 10:02:21 PM 41.0964 -76.1289 336° Northwest 227 261 14,000  Descending New York Center
Sat 10:03:21 PM 41.1633 -76.1700 335° Northwest 232 267 14,100  Climbing New York Center
Sat 10:04:21 PM 41.2200 -76.2050 335° Northwest 232 267 14,000  Descending New York Center
Sat 10:05:21 PM 41.2886 -76.2106 357° North 232 267 14,100 -400 Climbing New York Center
Sat 10:06:21 PM 41.3556 -76.1992 North 249 287 13,200 -1,150 Descending New York Center
Sat 10:07:21 PM 41.4308 -76.1969 North 268 308 11,800 -1,550 Descending New York Center
Sat 10:08:21 PM 41.5125 -76.1869 North 268 308 10,100 -1,339 Descending New York Center
Sat 10:09:22 PM 41.5811 -76.1869 360° North 263 303 9,100 -500 Descending New York Center
Sat 10:10:21 PM 41.6439 -76.1839 North 233 268 9,100  Level New York Center
Sat 10:11:21 PM 41.6983 -76.1744 North 225 259 9,100 -250 Level New York Center
Sat 10:12:21 PM 41.7614 -76.1600 10° North 220 253 8,600 -1,100 Descending New York Center
Sat 10:13:21 PM 41.8347 -76.1519 North 225 259 6,900 -1,587 Descending New York Center
Sat 10:14:22 PM 41.8967 -76.1208 20° North 235 270 5,400 -1,450 Descending New York Center
Sat 10:15:21 PM 41.9625 -76.0897 19° North 247 284 4,000 -908 Descending New York Center
Sat 10:16:21 PM 42.0194 -76.0750 11° North 242 278 3,600 -200 Descending New York Center
Sat 10:17:21 PM 42.0767 -76.0486 19° North 214 246 3,600  Level New York Center
Sat 10:18:21 PM 42.1236 -76.0217 23° Northeast 190 219 3,600 -99 Level New York Center
Sat 10:19:22 PM 42.1650 -75.9803 37° Northeast 185 213 3,400 -750 Descending New York Center
Sat 10:20:21 PM 42.1886 -75.9653 25° Northeast 163 188 2,100 -1,322 Descending New York Center

Login

Don't have an account? Register now (free) for customized features, flight alerts, and more!